Time;durP1;ratioP1;P1;durP2;ratioP2;P2;SDS_P1;SDS_P2;PMS_P1;PMS_P2;Temp;Humidity;BMP_temperature;BMP_pressure;BME280_temperature;BME280_humidity;BME280_pressure;Samples;Min_cycle;Max_cycle;Signal;HPM_P1;HPM_P2
2022/11/14 00:00:39;;;;;;;14.90;7.97;;;;;;;5.37;93.91;101501.88;5049058;28;20047;-68
2022/11/14 00:03:06;;;;;;;17.15;7.93;;;;;;;5.37;94.44;101504.53;5048993;28;20037;-67
2022/11/14 00:05:32;;;;;;;14.23;7.78;;;;;;;5.34;93.90;101515.38;5048962;28;20111;-67
2022/11/14 00:07:57;;;;;;;16.20;8.98;;;;;;;5.33;94.29;101500.47;5049075;28;20574;-67
2022/11/14 00:10:23;;;;;;;14.77;7.82;;;;;;;5.34;94.11;101498.66;5047830;28;20041;-67
2022/11/14 00:12:49;;;;;;;24.77;9.23;;;;;;;5.28;93.79;101494.81;5049057;28;20112;-67
2022/11/14 00:15:15;;;;;;;16.10;8.73;;;;;;;5.32;93.75;101492.69;5047710;28;20161;-68
2022/11/14 00:17:40;;;;;;;14.77;8.32;;;;;;;5.31;93.94;101497.16;5048972;28;20039;-67
2022/11/14 00:20:07;;;;;;;15.80;8.55;;;;;;;5.28;93.90;101495.63;5049043;28;20132;-68
2022/11/14 00:22:32;;;;;;;29.42;9.13;;;;;;;5.26;94.04;101483.53;5049075;28;20395;-67
2022/11/14 00:24:58;;;;;;;13.00;8.60;;;;;;;5.20;94.17;101481.47;5049026;28;20032;-67
2022/11/14 00:27:24;;;;;;;14.45;7.45;;;;;;;5.20;93.83;101487.59;5048942;28;20121;-68
2022/11/14 00:29:49;;;;;;;12.98;7.45;;;;;;;5.16;94.08;101485.38;5048909;28;20033;-67
2022/11/14 00:32:14;;;;;;;14.30;7.82;;;;;;;5.17;93.89;101477.31;5049039;28;20024;-68
2022/11/14 00:34:40;;;;;;;14.20;7.72;;;;;;;5.17;93.74;101487.88;5048937;28;20078;-68
2022/11/14 00:37:05;;;;;;;14.50;7.72;;;;;;;5.16;93.75;101480.09;5049008;28;20021;-67
2022/11/14 00:39:31;;;;;;;16.20;7.72;;;;;;;5.14;93.92;101471.50;5049016;28;20033;-67
2022/11/14 00:41:56;;;;;;;11.07;7.05;;;;;;;5.09;94.13;101461.34;5048751;28;20039;-67
2022/11/14 00:44:21;;;;;;;14.18;8.00;;;;;;;5.07;94.48;101470.41;5048685;28;20114;-67
2022/11/14 00:46:47;;;;;;;16.05;7.93;;;;;;;5.01;94.45;101470.00;5048905;28;20067;-68
2022/11/14 00:49:13;;;;;;;13.82;7.88;;;;;;;4.98;94.63;101465.00;5048897;28;20025;-68
2022/11/14 00:51:38;;;;;;;13.63;7.85;;;;;;;4.97;94.84;101468.63;5048704;28;20036;-68
2022/11/14 00:54:04;;;;;;;14.27;7.55;;;;;;;4.95;94.87;101457.38;5048817;28;20033;-68
2022/11/14 00:56:29;;;;;;;18.17;8.60;;;;;;;4.93;94.84;101458.50;5048679;28;20037;-67
2022/11/14 00:58:54;;;;;;;14.32;8.15;;;;;;;4.87;94.91;101445.84;5047392;28;20033;-67
2022/11/14 01:01:20;;;;;;;13.32;7.18;;;;;;;4.92;95.01;101455.00;5048604;28;20385;-67
2022/11/14 01:03:50;;;;;;;14.85;8.32;;;;;;;4.92;95.24;101451.53;5048652;28;20064;-67
2022/11/14 01:06:16;;;;;;;14.30;8.32;;;;;;;4.87;95.64;101454.59;5048637;28;20127;-68
2022/11/14 01:08:42;;;;;;;17.77;7.82;;;;;;;4.83;95.57;101454.06;5048799;28;20488;-67
2022/11/14 01:11:15;;;;;;;14.65;8.73;;;;;;;4.82;95.77;101447.13;5048546;28;20115;-67
2022/11/14 01:13:40;;;;;;;16.33;8.50;;;;;;;4.79;95.94;101452.69;5048515;28;20025;-68
2022/11/14 01:16:06;;;;;;;16.77;9.07;;;;;;;4.71;95.84;101442.00;5049734;28;20059;-67
2022/11/14 01:18:32;;;;;;;14.65;7.80;;;;;;;4.70;96.32;101439.50;5052194;28;20033;-67
2022/11/14 01:20:58;;;;;;;12.57;8.07;;;;;;;4.65;96.86;101442.56;5051943;28;20427;-67
2022/11/14 01:23:23;;;;;;;14.45;8.25;;;;;;;4.62;96.83;101437.59;5051964;28;20036;-67
2022/11/14 01:25:48;;;;;;;12.20;7.00;;;;;;;4.56;97.05;101424.97;5050681;28;20536;-67
2022/11/14 01:28:16;;;;;;;14.35;8.07;;;;;;;4.55;96.89;101434.66;5050682;28;20466;-67
2022/11/14 01:30:42;;;;;;;15.57;8.77;;;;;;;4.49;97.59;101423.84;5052004;28;20087;-67
2022/11/14 01:33:08;;;;;;;11.82;7.38;;;;;;;4.45;98.04;101425.09;5051812;28;20475;-67
2022/11/14 01:35:35;;;;;;;16.30;9.65;;;;;;;4.40;98.05;101420.25;5051892;28;20033;-67
2022/11/14 01:38:01;;;;;;;15.00;8.02;;;;;;;4.34;98.18;101410.25;5050664;28;20040;-67
2022/11/14 01:40:27;;;;;;;13.10;7.47;;;;;;;4.36;98.66;101413.59;5051576;28;20028;-67
2022/11/14 01:43:17;;;;;;;15.23;8.07;;;;;;;4.32;98.73;101410.41;5051602;28;20032;-67
2022/11/14 01:46:00;;;;;;;15.52;7.75;;;;;;;4.31;99.00;101403.44;5051511;28;20131;-67
2022/11/14 01:48:31;;;;;;;15.15;8.55;;;;;;;4.30;99.46;101399.16;5051722;28;20094;-67
2022/11/14 01:51:22;;;;;;;14.00;7.80;;;;;;;4.29;99.55;101396.66;5051552;28;20025;-67
2022/11/14 01:53:50;;;;;;;15.55;8.52;;;;;;;4.26;99.66;101392.47;5051447;28;20037;-67
2022/11/14 01:56:21;;;;;;;15.80;8.15;;;;;;;4.25;99.98;101396.09;5051476;28;20440;-67
2022/11/14 01:58:56;;;;;;;17.08;9.63;;;;;;;4.22;100.00;101385.84;5051402;28;20029;-67
2022/11/14 02:01:21;;;;;;;16.00;8.98;;;;;;;4.26;100.00;101386.38;5051367;28;20550;-67
2022/11/14 02:03:51;;;;;;;18.05;8.77;;;;;;;4.22;100.00;101382.34;5051392;28;20033;-67
2022/11/14 02:06:19;;;;;;;17.35;9.65;;;;;;;4.16;100.00;101376.66;5051365;28;20033;-68
2022/11/14 02:08:45;;;;;;;16.17;9.35;;;;;;;4.14;100.00;101375.97;5051211;28;20119;-67
2022/11/14 02:11:11;;;;;;;19.20;10.15;;;;;;;4.10;100.00;101368.47;5051111;28;20445;-67
2022/11/14 02:13:37;;;;;;;15.65;8.55;;;;;;;4.10;100.00;101371.13;5051118;28;20037;-67
2022/11/14 02:16:03;;;;;;;17.88;9.30;;;;;;;4.09;100.00;101369.47;5050979;28;20423;-67
2022/11/14 02:18:28;;;;;;;16.00;8.90;;;;;;;4.02;100.00;101358.63;5050985;28;20127;-67
2022/11/14 02:20:54;;;;;;;18.40;9.95;;;;;;;3.99;100.00;101351.00;5050901;28;20127;-67
2022/11/14 02:23:27;;;;;;;17.17;9.85;;;;;;;4.00;100.00;101347.38;5050749;28;20040;-67
2022/11/14 02:25:53;;;;;;;17.55;9.23;;;;;;;4.00;100.00;101354.47;5050904;28;20025;-67
2022/11/14 02:28:20;;;;;;;17.95;10.32;;;;;;;3.96;100.00;101348.66;5049158;28;20021;-67
2022/11/14 02:30:46;;;;;;;20.02;10.00;;;;;;;3.93;100.00;101351.56;5050717;28;20060;-67
2022/11/14 02:33:11;;;;;;;15.00;7.82;;;;;;;3.90;100.00;101354.47;5050748;28;20098;-67
2022/11/14 02:35:36;;;;;;;16.55;9.27;;;;;;;3.83;100.00;101343.66;5050775;28;20358;-67
2022/11/14 02:38:02;;;;;;;17.17;9.27;;;;;;;3.80;100.00;101343.94;5049306;28;20546;-67
2022/11/14 02:40:27;;;;;;;16.15;8.80;;;;;;;3.82;100.00;101341.97;5050549;28;20426;-67
2022/11/14 02:42:52;;;;;;;16.90;9.20;;;;;;;3.75;100.00;101332.97;5050547;28;20072;-67
2022/11/14 02:45:19;;;;;;;17.45;9.70;;;;;;;3.75;100.00;101340.91;5050293;28;20052;-67
2022/11/14 02:47:45;;;;;;;17.75;9.95;;;;;;;3.73;100.00;101346.28;5050457;28;20954;-67
2022/11/14 02:50:10;;;;;;;18.15;10.20;;;;;;;3.68;100.00;101339.78;5050375;28;20029;-67
2022/11/14 02:52:35;;;;;;;18.45;10.02;;;;;;;3.65;100.00;101338.25;5050190;28;20138;-67
2022/11/14 02:55:01;;;;;;;19.92;10.32;;;;;;;3.63;100.00;101349.91;5050202;28;20035;-67
2022/11/14 02:57:26;;;;;;;16.90;8.90;;;;;;;3.59;100.00;101359.06;5050311;28;20033;-67
2022/11/14 02:59:52;;;;;;;21.23;10.00;;;;;;;3.53;100.00;101355.19;5048773;28;20037;-67
2022/11/14 03:02:17;;;;;;;18.42;9.40;;;;;;;3.46;100.00;101352.28;5050168;28;20033;-67
2022/11/14 03:04:43;;;;;;;17.23;8.52;;;;;;;3.35;100.00;101335.75;5050138;28;20029;-67
2022/11/14 03:07:09;;;;;;;16.55;8.82;;;;;;;3.29;100.00;101337.94;5050187;28;20040;-67
2022/11/14 03:09:34;;;;;;;19.13;10.13;;;;;;;3.24;100.00;101342.78;5050085;28;20052;-67
2022/11/14 03:11:59;;;;;;;16.77;8.45;;;;;;;3.11;100.00;101336.13;5050101;28;20138;-67
2022/11/14 03:14:25;;;;;;;16.63;8.85;;;;;;;3.04;100.00;101336.69;5048598;28;20037;-67
2022/11/14 03:16:50;;;;;;;16.92;8.98;;;;;;;2.95;100.00;101323.47;5049925;28;20036;-67
2022/11/14 03:19:15;;;;;;;19.65;9.05;;;;;;;3.01;100.00;101339.59;5049990;28;20083;-67
2022/11/14 03:21:41;;;;;;;17.33;9.68;;;;;;;2.96;100.00;101335.66;5049894;28;20562;-67
2022/11/14 03:24:06;;;;;;;17.55;8.70;;;;;;;2.95;100.00;101336.66;5049900;28;20396;-67
2022/11/14 03:26:32;;;;;;;17.88;9.98;;;;;;;2.94;100.00;101335.00;5049721;28;20518;-67
2022/11/14 03:28:57;;;;;;;15.65;8.93;;;;;;;2.90;100.00;101329.16;5049578;28;20040;-67
2022/11/14 03:31:22;;;;;;;17.55;9.13;;;;;;;2.89;100.00;101330.13;5049695;28;20111;-67
2022/11/14 03:33:48;;;;;;;16.35;9.07;;;;;;;2.85;100.00;101323.44;5049717;28;20021;-67
2022/11/14 03:36:14;;;;;;;17.08;9.43;;;;;;;2.83;100.00;101315.69;5049598;28;20491;-67
2022/11/14 03:38:39;;;;;;;16.80;8.85;;;;;;;2.81;100.00;101325.53;5048678;28;20439;-67
2022/11/14 03:41:04;;;;;;;19.58;10.32;;;;;;;2.71;100.00;101319.38;5049521;28;20069;-67
2022/11/14 03:43:32;;;;;;;20.52;10.98;;;;;;;2.79;100.00;101321.34;5049385;28;20052;-67
2022/11/14 03:45:59;;;;;;;17.17;9.15;;;;;;;2.80;100.00;101315.97;5049296;28;20085;-67
2022/11/14 03:48:24;;;;;;;18.92;10.25;;;;;;;2.78;100.00;101312.63;5049428;28;20024;-67
2022/11/14 03:50:50;;;;;;;19.75;12.68;;;;;;;2.75;100.00;101307.63;5049422;28;20383;-67
2022/11/14 03:53:15;;;;;;;20.48;10.20;;;;;;;2.79;100.00;101316.09;5049340;28;20043;-67
2022/11/14 03:55:42;;;;;;;21.25;11.93;;;;;;;2.77;100.00;101313.56;5049321;28;20041;-67
2022/11/14 03:58:08;;;;;;;20.52;11.13;;;;;;;2.77;100.00;101315.38;5049216;28;20025;-67
2022/11/14 04:00:33;;;;;;;22.48;10.75;;;;;;;2.75;100.00;101312.91;5049207;28;20037;-67
2022/11/14 04:02:58;;;;;;;18.80;9.93;;;;;;;2.70;100.00;101309.84;5049248;28;20384;-67
2022/11/14 04:05:24;;;;;;;18.95;10.63;;;;;;;2.69;100.00;101305.50;5049212;28;20032;-67
2022/11/14 04:07:50;;;;;;;18.73;8.70;;;;;;;2.66;100.00;101299.69;5049207;28;20459;-67
2022/11/14 04:10:15;;;;;;;21.08;10.02;;;;;;;2.62;100.00;101296.50;5049315;28;20033;-67
2022/11/14 04:12:46;;;;;;;18.73;9.30;;;;;;;2.53;100.00;101292.03;5047745;28;20123;-67
2022/11/14 04:15:12;;;;;;;18.98;11.07;;;;;;;2.55;100.00;101288.28;5049247;28;20025;-67
2022/11/14 04:17:37;;;;;;;20.05;10.55;;;;;;;2.47;100.00;101263.63;5031711;28;20045;-67
2022/11/14 04:20:03;;;;;;;20.10;11.30;;;;;;;2.57;100.00;101277.66;5049111;28;20108;-67
2022/11/14 04:22:28;;;;;;;18.95;9.25;;;;;;;2.56;100.00;101275.97;5048775;28;20047;-67
2022/11/14 04:24:53;;;;;;;19.25;11.05;;;;;;;2.54;100.00;101272.63;5049014;28;20043;-67
2022/11/14 04:27:18;;;;;;;17.83;9.65;;;;;;;2.52;100.00;101278.03;5048892;28;20045;-67
2022/11/14 04:29:44;;;;;;;18.00;10.18;;;;;;;2.48;100.00;101279.25;5049078;28;20064;-67
2022/11/14 04:32:09;;;;;;;24.08;12.80;;;;;;;2.47;100.00;101282.03;5048919;28;20057;-67
2022/11/14 04:34:34;;;;;;;19.65;10.85;;;;;;;2.46;100.00;101280.34;5048937;28;20024;-67
2022/11/14 04:37:00;;;;;;;22.35;11.50;;;;;;;2.41;100.00;101280.75;5048830;28;20082;-67
2022/11/14 04:39:25;;;;;;;22.10;10.68;;;;;;;2.41;100.00;101280.75;5048755;28;20033;-67
2022/11/14 04:41:51;;;;;;;25.73;11.35;;;;;;;2.40;100.00;101273.81;5048755;28;20040;-67
2022/11/14 04:44:16;;;;;;;22.05;10.73;;;;;;;2.38;100.00;101281.03;5048613;28;20091;-67
2022/11/14 04:46:41;;;;;;;21.70;10.57;;;;;;;2.39;100.00;101282.69;5048797;28;20707;-67
2022/11/14 04:49:07;;;;;;;19.55;10.07;;;;;;;2.36;100.00;101273.28;5047503;28;20107;-67
2022/11/14 04:51:32;;;;;;;21.05;10.90;;;;;;;2.47;100.00;101285.50;5050939;28;20369;-68
2022/11/14 04:53:57;;;;;;;20.20;11.60;;;;;;;2.40;100.00;101258.88;5052661;28;20369;-67
2022/11/14 04:56:24;;;;;;;21.85;10.70;;;;;;;2.48;100.00;101278.44;5052586;28;20656;-67
2022/11/14 04:58:49;;;;;;;21.00;11.77;;;;;;;2.51;100.00;101278.16;5052515;28;20032;-67
2022/11/14 05:01:15;;;;;;;20.88;11.88;;;;;;;2.51;100.00;101270.25;5052312;28;20029;-67
2022/11/14 05:03:40;;;;;;;23.05;11.98;;;;;;;2.49;100.00;101262.50;5051323;28;20488;-67
2022/11/14 05:06:06;;;;;;;21.35;11.85;;;;;;;2.46;100.00;101259.28;5052462;28;20032;-67
2022/11/14 05:08:32;;;;;;;25.73;12.75;;;;;;;2.47;100.00;101260.97;5052605;28;20048;-67
2022/11/14 05:10:57;;;;;;;22.00;13.20;;;;;;;2.47;100.00;101258.34;5050998;28;20915;-67
2022/11/14 05:13:23;;;;;;;23.10;11.23;;;;;;;2.47;100.00;101253.09;5052223;28;20024;-67
2022/11/14 05:15:48;;;;;;;22.80;12.05;;;;;;;2.45;100.00;101255.00;5052207;28;20500;-67
2022/11/14 05:18:14;;;;;;;20.52;11.20;;;;;;;2.45;100.00;101253.22;5052261;28;20044;-67
2022/11/14 05:20:39;;;;;;;21.77;12.50;;;;;;;2.45;100.00;101250.56;5051913;28;20025;-67
2022/11/14 05:23:04;;;;;;;22.80;11.68;;;;;;;2.44;100.00;101253.31;5052033;28;20107;-67
2022/11/14 05:25:30;;;;;;;20.33;10.63;;;;;;;2.40;100.00;101250.97;5051976;28;20021;-67
2022/11/14 05:27:55;;;;;;;22.13;11.45;;;;;;;2.38;100.00;101246.81;5051873;28;20043;-67
2022/11/14 05:30:20;;;;;;;23.00;12.70;;;;;;;2.40;100.00;101248.34;5051911;28;20037;-67
2022/11/14 05:32:46;;;;;;;21.60;12.85;;;;;;;2.37;100.00;101237.25;5051754;28;20037;-67
2022/11/14 05:35:11;;;;;;;19.17;10.75;;;;;;;2.25;100.00;101217.25;5051912;28;20044;-67
2022/11/14 05:37:37;;;;;;;23.60;12.25;;;;;;;2.30;100.00;101229.03;5051663;28;20484;-67
2022/11/14 05:40:04;;;;;;;22.63;11.65;;;;;;;2.32;100.00;101229.75;5051736;28;20033;-67
2022/11/14 05:42:29;;;;;;;21.42;11.90;;;;;;;2.29;100.00;101229.19;5051625;28;20460;-67
2022/11/14 05:44:55;;;;;;;20.63;10.93;;;;;;;2.31;100.00;101222.00;5051629;28;20060;-67
2022/11/14 05:47:20;;;;;;;24.33;11.88;;;;;;;2.27;100.00;101226.69;5051635;28;20633;-67
2022/11/14 05:49:45;;;;;;;21.95;10.68;;;;;;;2.23;100.00;101220.03;5050266;28;20036;-67
2022/11/14 05:52:11;;;;;;;23.88;12.80;;;;;;;2.19;100.00;101216.81;5051646;28;20025;-67
2022/11/14 05:54:36;;;;;;;22.58;11.80;;;;;;;2.11;100.00;101211.38;5051402;28;20052;-67
2022/11/14 05:57:02;;;;;;;20.85;10.77;;;;;;;2.13;100.00;101216.53;5050213;28;20029;-67
2022/11/14 05:59:27;;;;;;;20.67;10.73;;;;;;;2.14;100.00;101215.56;5051353;28;20033;-67
2022/11/14 06:01:53;;;;;;;24.58;12.85;;;;;;;2.10;100.00;101209.75;5050475;28;20040;-67
2022/11/14 06:04:18;;;;;;;22.90;12.38;;;;;;;2.15;100.00;101211.97;5051332;28;20040;-67
2022/11/14 06:06:43;;;;;;;21.38;11.65;;;;;;;2.14;100.00;101213.75;5051340;28;20033;-67
2022/11/14 06:09:09;;;;;;;21.15;11.55;;;;;;;2.17;100.00;101216.16;5051138;28;20043;-67
2022/11/14 06:11:34;;;;;;;20.83;10.05;;;;;;;2.15;100.00;101223.34;5051077;28;20105;-67
2022/11/14 06:14:00;;;;;;;18.00;9.82;;;;;;;2.13;100.00;101227.06;5051218;28;20403;-70
2022/11/14 06:16:25;;;;;;;20.95;11.27;;;;;;;2.08;100.00;101222.19;5051039;28;20086;-70
2022/11/14 06:18:54;;;;;;;20.17;10.30;;;;;;;2.01;100.00;101221.03;5051184;28;20123;-70
2022/11/14 06:21:21;;;;;;;22.20;11.43;;;;;;;2.00;100.00;101219.38;5050917;28;20063;-70
2022/11/14 06:23:47;;;;;;;21.42;12.30;;;;;;;1.94;100.00;101214.66;5050686;28;20032;-70
2022/11/14 06:26:24;;;;;;;18.48;10.20;;;;;;;1.95;100.00;101221.56;5050745;28;20625;-70
2022/11/14 06:28:51;;;;;;;21.23;12.82;;;;;;;1.93;100.00;101223.50;5050727;28;20020;-70
2022/11/14 06:31:19;;;;;;;21.10;11.40;;;;;;;1.92;100.00;101232.38;5050679;28;20027;-70
2022/11/14 06:33:45;;;;;;;21.27;10.98;;;;;;;1.88;100.00;101223.88;5050501;28;20032;-70
2022/11/14 06:36:11;;;;;;;22.13;10.35;;;;;;;1.86;100.00;101224.97;5049274;28;20033;-70
2022/11/14 06:38:37;;;;;;;20.98;11.93;;;;;;;1.86;100.00;101230.22;5050561;28;20481;-70
2022/11/14 06:41:12;;;;;;;17.92;10.32;;;;;;;1.85;100.00;101224.16;5050565;28;20048;-70
2022/11/14 06:43:39;;;;;;;19.42;10.13;;;;;;;1.84;100.00;101219.03;5050594;28;20025;-70
2022/11/14 06:46:06;;;;;;;23.60;11.88;;;;;;;1.87;100.00;101222.22;5050431;28;20113;-70
2022/11/14 06:48:32;;;;;;;22.73;11.15;;;;;;;1.90;100.00;101226.41;5049215;28;20090;-71
2022/11/14 06:50:59;;;;;;;21.48;12.13;;;;;;;1.93;100.00;101226.94;5050363;28;20380;-70
2022/11/14 06:53:27;;;;;;;21.40;10.70;;;;;;;1.95;100.00;101222.41;5050136;28;20119;-70
2022/11/14 06:55:58;;;;;;;21.70;11.80;;;;;;;1.95;100.00;101218.94;5050170;28;20028;-70
2022/11/14 06:58:34;;;;;;;19.10;11.32;;;;;;;1.97;100.00;101228.38;5050167;28;20557;-70
2022/11/14 07:01:14;;;;;;;19.75;12.13;;;;;;;1.93;100.00;101219.06;5050012;28;20043;-70
2022/11/14 07:03:40;;;;;;;19.52;10.52;;;;;;;1.93;100.00;101221.69;5050088;28;20032;-70
2022/11/14 07:06:06;;;;;;;21.65;10.82;;;;;;;1.98;100.00;101227.41;5049978;28;20056;-70
2022/11/14 07:08:33;;;;;;;19.67;10.82;;;;;;;1.97;100.00;101227.53;5049613;28;20179;-70
2022/11/14 07:11:21;;;;;;;21.55;11.05;;;;;;;1.94;100.00;101225.19;5048602;28;20067;-70
2022/11/14 07:13:50;;;;;;;18.67;10.15;;;;;;;1.91;100.00;101231.53;5049735;28;20031;-70
2022/11/14 07:16:16;;;;;;;23.65;11.82;;;;;;;1.93;100.00;101239.28;5049858;28;20480;-70
2022/11/14 07:18:41;;;;;;;19.80;9.93;;;;;;;1.94;100.00;101233.91;5049876;28;20040;-70
2022/11/14 07:21:07;;;;;;;18.30;10.20;;;;;;;1.93;100.00;101232.22;5049670;28;20120;-70
2022/11/14 07:23:34;;;;;;;21.33;10.65;;;;;;;1.92;100.00;101233.19;5049608;28;20472;-70
2022/11/14 07:26:01;;;;;;;22.42;11.93;;;;;;;1.97;100.00;101228.38;5049689;28;20029;-70
2022/11/14 07:28:27;;;;;;;27.85;9.93;;;;;;;2.03;100.00;101241.97;5049639;28;20037;-70
2022/11/14 07:30:52;;;;;;;20.88;9.80;;;;;;;2.06;100.00;101232.00;5049555;28;20081;-71
2022/11/14 07:33:17;;;;;;;20.02;9.90;;;;;;;2.11;100.00;101234.25;5049561;28;20033;-70
2022/11/14 07:35:43;;;;;;;24.30;12.07;;;;;;;2.13;100.00;101232.31;5049564;28;20036;-70
2022/11/14 07:38:08;;;;;;;17.52;10.50;;;;;;;2.15;100.00;101223.34;5048102;28;20033;-70
2022/11/14 07:40:34;;;;;;;17.67;9.77;;;;;;;2.17;100.00;101225.81;5049331;28;20041;-70
2022/11/14 07:43:01;;;;;;;22.00;10.65;;;;;;;2.17;100.00;101210.88;5049279;28;20053;-69
2022/11/14 07:45:27;;;;;;;20.75;9.32;;;;;;;2.25;100.00;101217.25;5049103;28;20076;-70
2022/11/14 07:47:57;;;;;;;18.95;9.27;;;;;;;2.23;100.00;101212.16;5049239;28;20051;-70
2022/11/14 07:50:23;;;;;;;21.92;10.68;;;;;;;2.29;100.00;101203.69;5049254;28;20040;-70
2022/11/14 07:52:50;;;;;;;31.90;10.68;;;;;;;2.38;100.00;101220.47;5049052;28;20029;-69
2022/11/14 07:55:15;;;;;;;17.58;10.50;;;;;;;2.38;100.00;101207.31;5049231;28;20028;-69
2022/11/14 07:57:41;;;;;;;19.92;10.23;;;;;;;2.50;100.00;101218.59;5049241;28;20039;-70
2022/11/14 08:00:07;;;;;;;22.23;9.52;;;;;;;2.58;100.00;101214.31;5049092;28;20041;-69
2022/11/14 08:02:32;;;;;;;16.83;9.57;;;;;;;2.69;100.00;101221.25;5047615;28;20043;-69
2022/11/14 08:04:57;;;;;;;17.20;10.05;;;;;;;2.76;100.00;101224.19;5049021;28;20033;-70
2022/11/14 08:07:23;;;;;;;18.60;10.30;;;;;;;2.86;100.00;101225.03;5048671;28;20392;-69
2022/11/14 08:09:48;;;;;;;23.25;11.68;;;;;;;2.96;100.00;101214.47;5048655;28;20029;-70
2022/11/14 08:12:13;;;;;;;23.00;11.43;;;;;;;3.05;100.00;101208.38;5048556;28;20047;-70
2022/11/14 08:14:39;;;;;;;19.08;10.75;;;;;;;3.04;100.00;101183.03;5048551;28;20111;-70
2022/11/14 08:17:05;;;;;;;18.52;10.32;;;;;;;3.26;100.00;101201.16;5048843;28;20028;-70
2022/11/14 08:19:30;;;;;;;18.15;10.80;;;;;;;3.35;100.00;101188.09;5048903;28;20033;-69
2022/11/14 08:21:55;;;;;;;19.92;10.55;;;;;;;3.54;100.00;101192.50;5048800;28;20123;-69
2022/11/14 08:24:21;;;;;;;21.65;10.93;;;;;;;3.64;100.00;101188.91;5048877;28;20144;-69
2022/11/14 08:26:46;;;;;;;18.75;9.85;;;;;;;3.79;100.00;101186.63;5053127;28;20039;-70
2022/11/14 08:29:11;;;;;;;18.40;10.13;;;;;;;3.92;100.00;101189.75;5052930;28;20079;-70
2022/11/14 08:31:37;;;;;;;19.27;9.93;;;;;;;4.03;100.00;101193.19;5052939;28;20036;-70
2022/11/14 08:34:02;;;;;;;17.85;10.13;;;;;;;4.12;100.00;101181.78;5051456;28;20056;-73
2022/11/14 08:36:27;;;;;;;17.27;9.75;;;;;;;4.24;100.00;101183.22;5046022;28;20037;-69
2022/11/14 08:38:53;;;;;;;20.10;9.43;;;;;;;4.34;100.00;101184.00;5045436;28;20052;-72
2022/11/14 08:41:18;;;;;;;19.42;9.93;;;;;;;4.45;100.00;101179.50;5045252;28;20033;-71
2022/11/14 08:43:43;;;;;;;18.48;10.10;;;;;;;4.56;100.00;101185.41;5047007;28;20142;-71
2022/11/14 08:46:09;;;;;;;18.73;10.13;;;;;;;4.68;100.00;101182.53;5046711;28;20056;-69
2022/11/14 08:48:34;;;;;;;18.90;10.05;;;;;;;4.75;100.00;101173.88;5046716;28;20060;-70
2022/11/14 08:51:06;;;;;;;19.17;8.73;;;;;;;4.81;100.00;101170.63;5046057;28;20106;-72
2022/11/14 08:53:32;;;;;;;17.05;9.38;;;;;;;4.95;100.00;101181.63;5045342;28;20518;-73
2022/11/14 08:55:58;;;;;;;17.63;9.27;;;;;;;4.99;100.00;101167.16;5046619;28;20033;-72
2022/11/14 08:58:25;;;;;;;16.85;8.82;;;;;;;5.05;100.00;101159.41;5046554;28;20013;-73
2022/11/14 09:00:51;;;;;;;20.42;9.98;;;;;;;5.26;100.00;101171.47;5045906;28;20033;-73
2022/11/14 09:03:16;;;;;;;16.73;10.15;;;;;;;5.38;100.00;101169.44;5046489;28;20053;-70
2022/11/14 09:05:42;;;;;;;16.77;9.05;;;;;;;5.49;100.00;101162.06;5046150;28;21080;-74
2022/11/14 09:08:07;;;;;;;18.52;10.88;;;;;;;5.59;100.00;101153.19;5045202;28;21012;-71
2022/11/14 09:10:33;;;;;;;20.08;10.77;;;;;;;5.74;100.00;101150.78;5046391;28;20985;-72
2022/11/14 09:13:00;;;;;;;20.67;9.80;;;;;;;5.87;100.00;101156.50;5045897;28;20025;-72
2022/11/14 09:15:28;;;;;;;21.08;11.23;;;;;;;6.01;100.00;101147.97;5045776;28;20025;-70
2022/11/14 09:17:54;;;;;;;16.48;9.52;;;;;;;6.12;100.00;101146.84;5045927;28;20361;-70
2022/11/14 09:20:21;;;;;;;22.20;11.00;;;;;;;6.24;100.00;101150.88;5045673;28;20033;-70
2022/11/14 09:22:46;;;;;;;18.92;10.05;;;;;;;6.35;100.00;101155.88;5049915;28;20094;-69
2022/11/14 09:25:11;;;;;;;19.35;11.45;;;;;;;6.40;100.00;101147.44;5051946;28;20033;-69
2022/11/14 09:27:37;;;;;;;21.70;11.63;;;;;;;6.54;100.00;101164.53;5051865;28;20064;-69
2022/11/14 09:30:03;;;;;;;21.15;11.55;;;;;;;6.61;98.73;101159.41;5052007;28;20029;-68
2022/11/14 09:32:29;;;;;;;20.95;11.15;;;;;;;6.65;98.88;101145.66;5050441;28;20538;-69
2022/11/14 09:34:54;;;;;;;23.25;11.88;;;;;;;6.70;99.15;101135.38;5051870;28;20033;-68
2022/11/14 09:37:20;;;;;;;20.52;11.07;;;;;;;6.75;97.62;101130.44;5050547;28;20024;-66
2022/11/14 09:39:45;;;;;;;17.77;10.20;;;;;;;6.83;97.99;101128.78;5052010;28;20365;-66
2022/11/14 09:42:35;;;;;;;19.45;11.13;;;;;;;6.91;98.23;101137.56;5051507;28;20499;-66
2022/11/14 09:45:02;;;;;;;22.92;11.82;;;;;;;6.94;97.32;101145.22;5051121;28;20057;-66
2022/11/14 09:47:47;;;;;;;20.52;10.40;;;;;;;6.96;97.72;101139.72;5051656;28;20108;-66
2022/11/14 09:50:32;;;;;;;19.23;10.20;;;;;;;7.03;97.85;101144.19;5051584;28;20051;-66
2022/11/14 09:53:04;;;;;;;20.80;11.40;;;;;;;7.04;97.11;101142.38;5051573;28;20025;-66
2022/11/14 09:55:32;;;;;;;19.75;10.27;;;;;;;7.09;95.80;101144.53;5051539;28;20033;-67
2022/11/14 09:57:58;;;;;;;19.05;11.10;;;;;;;7.11;96.53;101145.19;5051334;28;20025;-66
2022/11/14 10:00:27;;;;;;;19.63;10.82;;;;;;;7.18;97.66;101140.88;5051352;28;20032;-66
2022/11/14 10:03:23;;;;;;;23.85;11.38;;;;;;;7.28;97.53;101140.69;5051099;28;20060;-66
2022/11/14 10:05:51;;;;;;;25.10;12.57;;;;;;;7.32;96.70;101142.03;5051180;28;20025;-67
2022/11/14 10:08:26;;;;;;;21.25;12.07;;;;;;;7.35;96.47;101133.72;5051199;28;20048;-66
2022/11/14 10:10:56;;;;;;;21.67;11.93;;;;;;;7.35;95.79;101136.38;5051170;28;20060;-66
2022/11/14 10:13:39;;;;;;;21.02;11.57;;;;;;;7.38;96.01;101136.84;5051047;28;20587;-66
2022/11/14 10:16:24;;;;;;;24.48;12.15;;;;;;;7.39;95.70;101138.53;5050973;28;20033;-67
2022/11/14 10:19:19;;;;;;;20.80;12.93;;;;;;;7.46;95.73;101143.97;5051209;28;20021;-66
2022/11/14 10:22:18;;;;;;;23.58;12.07;;;;;;;7.52;96.11;101137.16;5049742;28;20047;-66
2022/11/14 10:24:58;;;;;;;22.77;12.52;;;;;;;7.54;95.08;101137.81;5051264;28;20048;-66
2022/11/14 10:27:49;;;;;;;22.20;13.63;;;;;;;7.56;94.59;101136.66;5050695;28;20036;-66
2022/11/14 10:30:17;;;;;;;21.48;12.23;;;;;;;7.66;95.30;101133.81;5050785;28;20029;-66
2022/11/14 10:33:00;;;;;;;23.00;12.63;;;;;;;7.76;95.96;101133.63;5050630;28;20029;-67
2022/11/14 10:35:43;;;;;;;22.38;12.35;;;;;;;7.82;94.97;101132.94;5050662;28;20480;-66
2022/11/14 10:38:28;;;;;;;22.63;12.45;;;;;;;7.83;93.68;101131.94;5050624;28;20047;-67
2022/11/14 10:40:58;;;;;;;25.42;13.98;;;;;;;7.84;94.79;101131.78;5049281;28;20028;-67
2022/11/14 10:43:42;;;;;;;24.95;13.75;;;;;;;7.87;94.65;101135.91;5050469;28;20505;-67
2022/11/14 10:46:16;;;;;;;21.48;12.05;;;;;;;7.89;94.55;101117.97;5050199;28;20076;-67
2022/11/14 10:48:47;;;;;;;23.42;13.05;;;;;;;7.93;94.71;101119.28;5050154;28;20126;-67
2022/11/14 10:51:18;;;;;;;25.27;14.00;;;;;;;7.96;93.86;101121.59;5050410;28;20416;-67
2022/11/14 10:53:53;;;;;;;25.85;12.95;;;;;;;7.98;94.75;101122.25;5050346;28;20025;-67
2022/11/14 10:56:18;;;;;;;28.05;16.27;;;;;;;8.00;94.34;101120.25;5050307;28;20404;-67
2022/11/14 10:58:43;;;;;;;23.60;13.13;;;;;;;8.02;94.83;101112.94;5050275;28;20029;-67
2022/11/14 11:01:41;;;;;;;26.63;13.73;;;;;;;8.13;96.18;101117.84;5048832;28;20037;-67
2022/11/14 11:04:28;;;;;;;26.52;13.63;;;;;;;8.24;94.29;101115.81;5050117;28;20032;-67
2022/11/14 11:12:51;;;;;;;27.63;14.35;;;;;;;8.10;93.98;101094.31;5050190;28;20044;-67
2022/11/14 11:15:20;;;;;;;25.30;14.53;;;;;;;8.06;94.83;101094.81;5049853;28;20028;-67
2022/11/14 11:17:54;;;;;;;29.05;15.88;;;;;;;8.11;95.58;101084.50;5049949;28;20384;-67
2022/11/14 11:20:36;;;;;;;27.10;15.57;;;;;;;8.16;95.18;101084.81;5049926;28;20036;-67
2022/11/14 11:23:10;;;;;;;28.63;16.50;;;;;;;8.19;95.12;101078.31;5049908;28;20408;-67